createdAt,value
2022-12-15T00:01:09.293Z,79.92
2022-12-15T00:03:56.523Z,79.66
2022-12-15T00:06:43.656Z,79.88
2022-12-15T00:09:31.192Z,79.46
2022-12-15T00:12:19.707Z,80.12
2022-12-15T00:15:06.627Z,80.59
2022-12-15T00:17:53.344Z,80.25
2022-12-15T00:20:40.579Z,80.13
2022-12-15T00:23:28.641Z,80.14
2022-12-15T00:26:16.378Z,80.90
2022-12-15T00:29:04.253Z,81.07
2022-12-15T00:31:51.166Z,80.15
2022-12-15T00:34:38.012Z,79.87
2022-12-15T00:37:24.979Z,79.58
2022-12-15T00:39:59.481Z,79.47
2022-12-15T00:42:29.598Z,79.76
2022-12-15T00:45:00.543Z,80.25
2022-12-15T00:47:29.183Z,80.07
2022-12-15T00:50:15.859Z,79.43
2022-12-15T00:53:03.409Z,80.00
2022-12-15T00:55:49.924Z,80.46
2022-12-15T00:58:36.922Z,80.53
2022-12-15T01:01:27.956Z,80.55
2022-12-15T01:04:15.263Z,80.03
2022-12-15T01:07:02.011Z,79.31
2022-12-15T01:09:48.933Z,79.89
2022-12-15T01:12:35.759Z,80.08
2022-12-15T01:15:23.475Z,79.74
2022-12-15T01:18:11.561Z,79.87
2022-12-15T01:20:41.538Z,79.66
2022-12-15T01:23:10.843Z,79.47
2022-12-15T01:25:40.661Z,79.67
2022-12-15T01:28:10.049Z,79.52
2022-12-15T01:30:39.959Z,79.38
2022-12-15T01:33:10.685Z,79.67
2022-12-15T01:35:40.506Z,79.18
2022-12-15T01:38:10.699Z,79.12
2022-12-15T01:40:45.246Z,78.95
2022-12-15T01:43:16.954Z,79.40
2022-12-15T01:45:59.003Z,79.14
2022-12-15T01:48:39.676Z,79.38
2022-12-15T01:51:23.518Z,78.73
2022-12-15T01:53:59.266Z,79.84
2022-12-15T01:56:35.531Z,80.01
2022-12-15T01:59:09.479Z,80.06
2022-12-15T02:01:39.493Z,79.25
2022-12-15T02:04:14.879Z,79.51
2022-12-15T02:06:44.449Z,79.91
2022-12-15T02:09:14.349Z,79.36
2022-12-15T02:11:58.808Z,79.43
2022-12-15T02:14:41.078Z,79.11
2022-12-15T02:17:23.590Z,79.26
2022-12-15T02:20:23.427Z,78.94
2022-12-15T02:23:28.741Z,78.61
2022-12-15T02:26:20.359Z,79.02
2022-12-15T02:29:02.315Z,78.79
2022-12-15T02:31:51.344Z,78.77
2022-12-15T02:34:28.137Z,78.84
2022-12-15T02:37:01.877Z,79.05
2022-12-15T02:39:31.511Z,78.93
2022-12-15T02:42:00.830Z,79.22
2022-12-15T02:44:36.637Z,79.20
2022-12-15T02:47:28.457Z,79.48
2022-12-15T02:50:24.184Z,79.05
2022-12-15T02:53:05.060Z,79.20
2022-12-15T02:55:46.698Z,79.08
2022-12-15T02:58:28.798Z,79.08
2022-12-15T03:01:14.532Z,79.21
2022-12-15T03:03:47.838Z,78.99
2022-12-15T03:06:18.176Z,78.64
2022-12-15T03:08:47.513Z,78.54
2022-12-15T03:11:17.271Z,78.85
2022-12-15T03:13:46.592Z,78.81
2022-12-15T03:16:19.558Z,79.33
2022-12-15T03:18:50.336Z,78.92
2022-12-15T03:21:19.859Z,79.59
2022-12-15T03:23:49.144Z,79.17
2022-12-15T03:26:18.805Z,79.59
2022-12-15T03:28:48.101Z,79.07
2022-12-15T03:36:46.504Z,79.11
2022-12-15T03:39:15.794Z,78.44
2022-12-15T03:41:45.054Z,78.71
2022-12-15T03:44:14.624Z,78.79
2022-12-15T03:46:43.942Z,79.20
2022-12-15T03:49:13.537Z,78.78
2022-12-15T03:51:42.911Z,78.37
2022-12-15T03:54:14.991Z,78.58
2022-12-15T03:56:44.498Z,79.09
2022-12-15T03:59:14.037Z,78.75
2022-12-15T04:01:49.140Z,78.75
2022-12-15T04:04:19.065Z,79.17
2022-12-15T04:06:48.468Z,78.91
2022-12-15T04:09:21.259Z,78.18
2022-12-15T04:11:50.499Z,78.22
2022-12-15T04:14:31.987Z,77.64
2022-12-15T04:17:01.711Z,77.98
2022-12-15T04:19:48.612Z,77.83
2022-12-15T04:22:18.239Z,78.11
2022-12-15T04:25:07.004Z,78.31
2022-12-15T04:27:58.411Z,78.42
2022-12-15T04:30:50.190Z,78.38
2022-12-15T04:33:38.081Z,78.15
2022-12-15T04:36:26.937Z,79.17
2022-12-15T04:39:13.459Z,78.61
2022-12-15T04:42:01.875Z,78.43
2022-12-15T04:44:50.106Z,78.53
2022-12-15T04:47:37.610Z,77.91
2022-12-15T04:50:24.787Z,78.41
2022-12-15T04:53:12.020Z,78.47
2022-12-15T04:55:58.850Z,78.53
2022-12-15T04:58:47.278Z,78.22
2022-12-15T05:01:34.208Z,78.83
2022-12-15T05:04:21.485Z,78.70
2022-12-15T05:07:08.216Z,78.69
2022-12-15T05:09:58.407Z,78.84
2022-12-15T05:12:49.640Z,78.51
2022-12-15T05:15:38.133Z,78.26
2022-12-15T05:18:25.221Z,78.71
2022-12-15T05:21:13.667Z,78.51
2022-12-15T05:24:00.558Z,78.76
2022-12-15T05:26:52.313Z,78.49
2022-12-15T05:29:40.064Z,78.84
2022-12-15T05:32:11.800Z,78.92
2022-12-15T05:34:41.070Z,78.28
2022-12-15T05:37:10.609Z,78.82
2022-12-15T05:39:39.844Z,78.71
2022-12-15T05:42:09.381Z,78.81
2022-12-15T05:44:38.788Z,78.47
2022-12-15T05:47:11.905Z,78.00
2022-12-15T05:49:41.304Z,78.23
2022-12-15T05:52:10.893Z,77.76
2022-12-15T05:54:40.177Z,78.08
2022-12-15T05:57:09.810Z,78.10
2022-12-15T05:59:39.086Z,77.69
2022-12-15T06:02:10.202Z,78.52
2022-12-15T06:04:39.546Z,78.63
2022-12-15T06:07:09.177Z,78.31
2022-12-15T06:09:38.468Z,77.74
2022-12-15T06:12:08.402Z,78.23
2022-12-15T06:14:37.853Z,77.75
2022-12-15T06:17:07.493Z,77.70
2022-12-15T06:19:38.125Z,77.83
2022-12-15T06:22:08.159Z,77.80
2022-12-15T06:24:37.596Z,77.88
2022-12-15T06:27:07.111Z,77.92
2022-12-15T06:29:36.341Z,77.95
2022-12-15T06:32:06.132Z,77.74
2022-12-15T06:34:35.539Z,78.28
2022-12-15T06:37:06.571Z,78.18
2022-12-15T06:39:35.901Z,78.59
2022-12-15T06:42:05.884Z,78.54
2022-12-15T06:44:35.141Z,78.27
2022-12-15T06:47:04.770Z,78.42
2022-12-15T06:49:34.026Z,78.09
2022-12-15T06:52:03.592Z,78.33
2022-12-15T06:54:34.209Z,78.12
2022-12-15T06:57:03.832Z,77.74
2022-12-15T06:59:33.272Z,77.48
2022-12-15T07:02:02.977Z,78.03
2022-12-15T07:04:34.541Z,78.11
2022-12-15T07:07:04.505Z,78.71
2022-12-15T07:09:35.439Z,78.84
2022-12-15T07:12:05.141Z,78.06
2022-12-15T07:14:34.459Z,78.43
2022-12-15T07:17:04.025Z,78.07
2022-12-15T07:19:33.300Z,78.30
2022-12-15T07:22:03.092Z,78.85
2022-12-15T07:24:32.423Z,78.40
2022-12-15T07:27:03.349Z,78.43
2022-12-15T07:29:32.660Z,78.37
2022-12-15T07:32:02.554Z,78.55
2022-12-15T07:34:32.032Z,78.44
2022-12-15T07:37:01.872Z,78.67
2022-12-15T07:39:31.148Z,78.37
2022-12-15T07:42:02.238Z,78.37
2022-12-15T07:44:32.015Z,77.46
2022-12-15T07:47:01.653Z,77.20
2022-12-15T07:49:30.889Z,77.00
2022-12-15T07:52:00.526Z,77.64
2022-12-15T07:54:30.047Z,77.48
2022-12-15T07:57:00.128Z,77.42
2022-12-15T07:59:30.856Z,77.08
2022-12-15T08:02:01.113Z,77.17
2022-12-15T08:04:30.691Z,77.18
2022-12-15T08:07:00.559Z,77.61
2022-12-15T08:09:31.660Z,77.33
2022-12-15T08:12:01.528Z,77.31
2022-12-15T08:14:32.465Z,77.74
2022-12-15T08:17:02.233Z,77.31
2022-12-15T08:19:31.948Z,77.35
2022-12-15T08:22:01.579Z,77.75
2022-12-15T08:24:30.970Z,77.43
2022-12-15T08:27:01.046Z,77.43
2022-12-15T08:29:50.798Z,77.33
2022-12-15T08:32:21.244Z,77.55
2022-12-15T08:34:51.007Z,77.41
2022-12-15T08:37:21.009Z,77.78
2022-12-15T08:39:50.621Z,77.81
2022-12-15T08:42:20.336Z,77.60
2022-12-15T08:44:52.383Z,77.86
2022-12-15T08:47:22.012Z,77.64
2022-12-15T08:49:51.691Z,77.64
2022-12-15T08:52:36.190Z,77.40
2022-12-15T08:55:05.809Z,77.61
2022-12-15T08:57:35.560Z,77.56
2022-12-15T09:00:07.079Z,78.12
2022-12-15T09:02:36.877Z,77.57
2022-12-15T09:05:07.015Z,77.40
2022-12-15T09:07:36.867Z,77.14
2022-12-15T09:10:06.822Z,77.24
2022-12-15T09:12:36.405Z,76.54
2022-12-15T09:15:08.246Z,76.63
2022-12-15T09:17:37.877Z,76.46
2022-12-15T09:20:09.126Z,76.60
2022-12-15T09:22:38.748Z,76.97
2022-12-15T09:25:08.766Z,75.65
2022-12-15T09:27:38.352Z,75.90
2022-12-15T09:30:10.728Z,76.40
2022-12-15T09:32:40.453Z,75.80
2022-12-15T09:35:10.290Z,74.68
2022-12-15T09:37:39.931Z,75.65
2022-12-15T09:40:14.046Z,74.65
2022-12-15T09:43:04.834Z,73.26
2022-12-15T09:45:46.750Z,73.09
2022-12-15T09:48:18.997Z,72.49
2022-12-15T09:50:52.746Z,71.75
2022-12-15T09:53:53.472Z,78.98
2022-12-15T09:56:22.635Z,80.99
2022-12-15T09:59:01.495Z,63.03
2022-12-15T10:01:43.971Z,54.18
2022-12-15T10:04:27.328Z,53.99
2022-12-15T10:07:04.299Z,55.69
2022-12-15T10:09:33.891Z,58.70
2022-12-15T10:12:08.469Z,57.91
2022-12-15T10:14:43.400Z,51.83
2022-12-15T10:17:22.605Z,52.37
2022-12-15T10:20:00.985Z,46.00
2022-12-15T10:22:34.429Z,42.89
2022-12-15T10:25:10.747Z,41.74
2022-12-15T10:28:05.708Z,38.24
2022-12-15T10:30:35.791Z,38.36
2022-12-15T10:33:19.273Z,36.44
2022-12-15T10:35:49.743Z,36.97
2022-12-15T10:38:26.674Z,34.54
2022-12-15T10:40:59.649Z,36.63
2022-12-15T10:43:32.627Z,34.98
2022-12-15T10:46:05.491Z,34.74
2022-12-15T10:48:36.403Z,34.42
2022-12-15T10:51:30.017Z,33.55
2022-12-15T10:54:09.566Z,33.55
2022-12-15T10:56:50.341Z,31.26
2022-12-15T10:59:30.204Z,31.08
2022-12-15T11:02:28.578Z,32.08
2022-12-15T11:05:01.097Z,31.73
2022-12-15T11:07:37.262Z,32.67
2022-12-15T11:10:21.507Z,31.72
2022-12-15T11:13:00.724Z,30.49
2022-12-15T11:15:53.342Z,29.02
2022-12-15T11:18:37.330Z,28.81
2022-12-15T11:21:13.391Z,28.58
2022-12-15T11:24:00.317Z,27.98
2022-12-15T11:26:48.904Z,27.56
2022-12-15T11:29:28.097Z,26.94
2022-12-15T11:32:04.753Z,27.33
2022-12-15T11:34:40.412Z,28.89
2022-12-15T11:37:42.443Z,32.18
2022-12-15T11:40:29.631Z,31.80
2022-12-15T11:43:31.532Z,35.71
2022-12-15T11:46:19.626Z,35.07
2022-12-15T11:49:07.855Z,33.25
2022-12-15T11:51:44.177Z,33.80
2022-12-15T11:54:29.859Z,33.36
2022-12-15T11:57:24.529Z,31.65
2022-12-15T12:00:05.051Z,32.74
2022-12-15T12:03:09.841Z,34.86
2022-12-15T12:05:52.692Z,34.55
2022-12-15T12:08:39.406Z,34.50
2022-12-15T12:11:15.225Z,36.22
2022-12-15T12:14:11.673Z,37.90
2022-12-15T12:16:47.381Z,33.56
2022-12-15T12:19:22.329Z,34.98
2022-12-15T12:21:55.272Z,32.61
2022-12-15T12:24:31.223Z,34.74
2022-12-15T12:27:06.659Z,35.28
2022-12-15T12:29:40.614Z,37.30
2022-12-15T12:32:16.759Z,38.48
2022-12-15T12:35:30.367Z,38.41
2022-12-15T12:38:01.372Z,39.75
2022-12-15T12:40:47.602Z,40.79
2022-12-15T12:43:32.107Z,41.57
2022-12-15T12:46:08.557Z,42.17
2022-12-15T12:48:40.895Z,39.07
2022-12-15T12:51:24.215Z,38.17
2022-12-15T12:53:53.757Z,40.81
2022-12-15T12:56:33.518Z,42.89
2022-12-15T12:59:08.831Z,43.92
2022-12-15T13:01:39.284Z,49.22
2022-12-15T13:04:11.979Z,49.57
2022-12-15T13:07:03.431Z,48.95
2022-12-15T13:09:43.926Z,48.44
2022-12-15T13:12:54.455Z,45.46
2022-12-15T13:15:45.392Z,43.78
2022-12-15T13:18:25.665Z,43.90
2022-12-15T13:20:58.988Z,42.70
2022-12-15T13:23:41.342Z,43.82
2022-12-15T13:26:19.958Z,44.34
2022-12-15T13:28:59.231Z,45.88
2022-12-15T13:31:49.700Z,44.77
2022-12-15T13:34:28.706Z,46.72
2022-12-15T13:37:03.875Z,50.97
2022-12-15T13:40:00.159Z,55.64
2022-12-15T13:42:51.217Z,58.85
2022-12-15T13:45:48.924Z,61.23
2022-12-15T13:48:33.989Z,64.02
2022-12-15T13:51:32.928Z,65.07
2022-12-15T13:54:15.571Z,66.99
2022-12-15T13:56:57.014Z,67.44
2022-12-15T13:59:43.112Z,68.21
2022-12-15T14:02:26.842Z,70.26
2022-12-15T14:05:15.118Z,69.44
2022-12-15T14:07:54.351Z,69.21
2022-12-15T14:10:29.501Z,69.45
2022-12-15T14:13:11.526Z,70.69
2022-12-15T14:15:47.569Z,71.42
2022-12-15T14:18:32.632Z,72.36
2022-12-15T14:21:03.281Z,71.89
2022-12-15T14:23:52.516Z,71.55
2022-12-15T14:26:33.295Z,72.76
2022-12-15T14:29:05.234Z,72.27
2022-12-15T14:31:38.161Z,72.50
2022-12-15T14:34:11.978Z,74.47
2022-12-15T14:36:43.513Z,74.39
2022-12-15T14:39:21.771Z,75.86
2022-12-15T14:41:55.344Z,75.97
2022-12-15T14:47:24.780Z,76.26
2022-12-15T14:49:55.010Z,76.58
2022-12-15T14:52:31.672Z,75.24
2022-12-15T14:55:03.338Z,76.51
2022-12-15T14:57:44.766Z,77.84
2022-12-15T15:00:36.295Z,77.22
2022-12-15T15:06:01.550Z,79.13
2022-12-15T15:08:33.641Z,79.23
2022-12-15T15:11:24.447Z,79.17
2022-12-15T15:13:59.443Z,79.57
2022-12-15T15:16:29.753Z,79.38
2022-12-15T15:19:01.953Z,79.93
2022-12-15T15:21:36.540Z,80.71
2022-12-15T15:24:22.655Z,80.52
2022-12-15T15:26:52.545Z,81.59
2022-12-15T15:29:40.319Z,81.97
2022-12-15T15:32:17.427Z,81.16
2022-12-15T15:34:48.090Z,81.25
2022-12-15T15:37:20.960Z,81.62
2022-12-15T15:39:51.734Z,81.38
2022-12-15T15:42:21.302Z,80.65
2022-12-15T15:44:51.920Z,80.71
2022-12-15T15:47:26.827Z,80.79
2022-12-15T15:49:59.411Z,81.59
2022-12-15T15:52:32.416Z,82.23
2022-12-15T15:55:01.958Z,82.40
2022-12-15T15:57:31.463Z,83.10
2022-12-15T16:00:05.515Z,82.61
2022-12-15T16:02:36.410Z,82.35
2022-12-15T16:05:06.417Z,82.33
2022-12-15T16:07:36.224Z,82.46
2022-12-15T16:10:08.190Z,82.14
2022-12-15T16:12:43.291Z,82.65
2022-12-15T16:15:19.916Z,82.31
2022-12-15T16:17:50.664Z,82.46
2022-12-15T16:20:21.568Z,82.74
2022-12-15T16:22:55.922Z,82.93
2022-12-15T16:25:41.246Z,82.74
2022-12-15T16:28:15.435Z,82.95
2022-12-15T16:30:47.086Z,83.13
2022-12-15T16:33:17.235Z,83.35
2022-12-15T16:35:48.263Z,83.06
2022-12-15T16:38:23.955Z,83.59
2022-12-15T16:40:55.238Z,83.94
2022-12-15T16:43:31.453Z,84.09
2022-12-15T16:46:10.133Z,84.61
2022-12-15T16:48:46.019Z,83.86
2022-12-15T16:51:28.184Z,83.04
2022-12-15T16:53:58.103Z,82.50
2022-12-15T16:56:27.401Z,82.29
2022-12-15T16:59:15.693Z,81.64
2022-12-15T17:01:48.441Z,82.47
2022-12-15T17:04:19.340Z,82.03
2022-12-15T17:06:48.853Z,82.88
2022-12-15T17:09:23.616Z,82.97
2022-12-15T17:11:53.243Z,82.79
2022-12-15T17:14:23.049Z,83.07
2022-12-15T17:16:55.810Z,83.24
2022-12-15T17:19:25.458Z,84.01
2022-12-15T17:21:55.749Z,83.90
2022-12-15T17:24:25.339Z,83.60
2022-12-15T17:26:55.008Z,84.26
2022-12-15T17:29:26.419Z,83.86
2022-12-15T17:31:57.052Z,83.50
2022-12-15T17:34:31.304Z,83.61
2022-12-15T17:37:02.940Z,82.99
2022-12-15T17:39:34.768Z,83.20
2022-12-15T17:42:04.673Z,82.79
2022-12-15T17:44:38.163Z,82.71
2022-12-15T17:47:10.116Z,82.66
2022-12-15T17:49:41.579Z,82.33
2022-12-15T17:52:26.228Z,82.05
2022-12-15T17:54:56.883Z,81.75
2022-12-15T17:57:26.176Z,81.61
2022-12-15T17:59:55.891Z,81.83
2022-12-15T18:02:26.613Z,81.83
2022-12-15T18:04:57.565Z,81.63
2022-12-15T18:07:27.599Z,81.50
2022-12-15T18:09:57.117Z,81.48
2022-12-15T18:12:29.136Z,81.56
2022-12-15T18:14:58.785Z,81.84
2022-12-15T18:17:30.683Z,81.96
2022-12-15T18:20:00.463Z,81.65
2022-12-15T18:22:30.557Z,81.72
2022-12-15T18:25:00.137Z,81.72
2022-12-15T18:27:31.527Z,81.95
2022-12-15T18:30:01.059Z,82.25
2022-12-15T18:32:32.544Z,82.26
2022-12-15T18:35:02.564Z,82.39
2022-12-15T18:37:31.977Z,82.15
2022-12-15T18:40:04.990Z,82.17
2022-12-15T18:42:35.117Z,82.15
2022-12-15T18:45:06.020Z,81.89
2022-12-15T18:47:36.959Z,81.98
2022-12-15T18:50:12.292Z,82.02
2022-12-15T18:52:41.638Z,82.10
2022-12-15T18:55:21.673Z,82.34
2022-12-15T18:57:52.925Z,82.17
2022-12-15T19:00:28.292Z,82.37
2022-12-15T19:03:01.242Z,82.23
2022-12-15T19:05:32.870Z,82.00
2022-12-15T19:08:09.990Z,82.06
2022-12-15T19:10:46.545Z,81.87
2022-12-15T19:13:17.357Z,82.46
2022-12-15T19:15:51.525Z,82.70
2022-12-15T19:18:42.760Z,82.53
2022-12-15T19:21:33.572Z,83.18
2022-12-15T19:24:03.390Z,84.22
2022-12-15T19:26:33.037Z,84.29
2022-12-15T19:29:03.266Z,84.94
2022-12-15T19:31:35.421Z,84.15
2022-12-15T19:34:08.210Z,84.62
2022-12-15T19:36:37.984Z,85.46
2022-12-15T19:39:17.972Z,85.59
2022-12-15T19:41:48.674Z,85.76
2022-12-15T19:44:19.168Z,85.09
2022-12-15T19:46:48.907Z,85.16
2022-12-15T19:49:19.720Z,84.27
2022-12-15T19:51:49.917Z,85.03
2022-12-15T19:54:22.093Z,84.88
2022-12-15T19:56:53.079Z,84.81
2022-12-15T19:59:28.944Z,84.78
2022-12-15T20:02:00.346Z,85.44
2022-12-15T20:04:32.228Z,85.16
2022-12-15T20:07:04.321Z,84.93
2022-12-15T20:09:33.822Z,84.94
2022-12-15T20:12:03.428Z,84.55
2022-12-15T20:14:32.767Z,84.81
2022-12-15T20:17:04.560Z,84.57
2022-12-15T20:19:35.615Z,84.05
2022-12-15T20:22:06.862Z,84.10
2022-12-15T20:24:36.471Z,84.26
2022-12-15T20:27:11.897Z,84.14
2022-12-15T20:29:44.006Z,84.25
2022-12-15T20:32:16.886Z,84.25
2022-12-15T20:34:48.797Z,83.94
2022-12-15T20:37:22.063Z,83.42
2022-12-15T20:39:57.220Z,83.78
2022-12-15T20:42:26.858Z,83.59
2022-12-15T20:44:56.364Z,83.39
2022-12-15T20:47:27.845Z,83.20
2022-12-15T20:49:58.491Z,83.27
2022-12-15T20:52:29.797Z,83.66
2022-12-15T20:54:59.305Z,84.36
2022-12-15T20:57:28.936Z,83.61
2022-12-15T20:59:59.432Z,83.99
2022-12-15T21:02:30.880Z,84.05
2022-12-15T21:05:03.478Z,84.46
2022-12-15T21:07:33.071Z,83.76
2022-12-15T21:10:02.282Z,83.75
2022-12-15T21:12:31.950Z,84.37
2022-12-15T21:15:01.528Z,85.16
2022-12-15T21:17:31.622Z,85.31
2022-12-15T21:20:02.328Z,84.81
2022-12-15T21:22:32.145Z,84.20
2022-12-15T21:25:01.967Z,84.55
2022-12-15T21:27:31.672Z,84.56
2022-12-15T21:30:00.959Z,85.59
2022-12-15T21:32:30.573Z,84.79
2022-12-15T21:35:01.411Z,85.29
2022-12-15T21:37:31.942Z,84.73
2022-12-15T21:40:01.874Z,85.44
2022-12-15T21:42:31.901Z,85.73
2022-12-15T21:45:01.324Z,87.06
2022-12-15T21:47:52.993Z,87.07
2022-12-15T21:50:24.859Z,87.11
2022-12-15T21:52:54.796Z,87.47
2022-12-15T21:55:26.962Z,88.02
2022-12-15T21:57:57.356Z,87.67
2022-12-15T22:00:27.583Z,87.92
2022-12-15T22:02:57.225Z,88.29
2022-12-15T22:05:30.427Z,88.49
2022-12-15T22:08:01.767Z,88.58
2022-12-15T22:10:30.992Z,88.25
2022-12-15T22:13:00.742Z,88.79
2022-12-15T22:15:31.000Z,88.03
2022-12-15T22:18:00.645Z,88.19
2022-12-15T22:20:31.460Z,87.83
2022-12-15T22:23:01.108Z,87.68
2022-12-15T22:25:30.545Z,87.55
2022-12-15T22:28:00.164Z,86.77
2022-12-15T22:30:29.962Z,87.76
2022-12-15T22:32:59.532Z,87.99
2022-12-15T22:35:30.287Z,87.49
2022-12-15T22:37:59.740Z,86.89
2022-12-15T22:40:30.309Z,86.28
2022-12-15T22:43:00.460Z,87.10
2022-12-15T22:45:29.935Z,86.80
2022-12-15T22:47:59.736Z,86.71
2022-12-15T22:50:30.525Z,86.26
2022-12-15T22:53:00.706Z,85.57
2022-12-15T22:55:29.993Z,86.18
2022-12-15T22:58:03.082Z,86.58
2022-12-15T23:00:32.439Z,86.79
2022-12-15T23:03:02.515Z,86.22
2022-12-15T23:05:33.367Z,86.51
2022-12-15T23:08:02.912Z,86.05
2022-12-15T23:10:49.459Z,85.93
2022-12-15T23:13:20.092Z,85.87
2022-12-15T23:16:07.708Z,86.19
2022-12-15T23:18:38.058Z,86.77
2022-12-15T23:21:09.556Z,86.12
2022-12-15T23:23:39.183Z,86.24
2022-12-15T23:26:08.560Z,86.39
2022-12-15T23:28:38.741Z,87.56
2022-12-15T23:31:08.294Z,87.68
2022-12-15T23:33:39.075Z,87.29
2022-12-15T23:36:12.239Z,88.11
2022-12-15T23:38:42.031Z,87.61
2022-12-15T23:41:17.840Z,87.29
2022-12-15T23:43:47.926Z,86.78
2022-12-15T23:46:18.595Z,87.13
2022-12-15T23:48:48.359Z,87.02
2022-12-15T23:51:21.252Z,87.18
2022-12-15T23:53:50.892Z,86.68
2022-12-15T23:56:23.489Z,87.23
2022-12-15T23:58:57.346Z,87.13
